sensor_id;sensor_type;location;lat;lon;timestamp;P1;durP1;ratioP1;P2;durP2;ratioP2
4835;SDS011;2432;51.226;6.904;2022-12-16T00:00:35;71.50;;;33.10;;
4835;SDS011;2432;51.226;6.904;2022-12-16T00:03:25;63.67;;;32.97;;
4835;SDS011;2432;51.226;6.904;2022-12-16T00:05:53;62.87;;;31.97;;
4835;SDS011;2432;51.226;6.904;2022-12-16T00:08:20;65.77;;;31.63;;
4835;SDS011;2432;51.226;6.904;2022-12-16T00:10:46;67.03;;;32.73;;
4835;SDS011;2432;51.226;6.904;2022-12-16T00:13:20;68.13;;;32.70;;
4835;SDS011;2432;51.226;6.904;2022-12-16T00:15:46;65.60;;;32.47;;
4835;SDS011;2432;51.226;6.904;2022-12-16T00:18:16;65.43;;;32.17;;
4835;SDS011;2432;51.226;6.904;2022-12-16T00:20:45;73.10;;;35.40;;
4835;SDS011;2432;51.226;6.904;2022-12-16T00:23:13;65.50;;;30.57;;
4835;SDS011;2432;51.226;6.904;2022-12-16T00:25:40;64.13;;;31.37;;
4835;SDS011;2432;51.226;6.904;2022-12-16T00:28:08;64.30;;;31.57;;
4835;SDS011;2432;51.226;6.904;2022-12-16T00:30:35;64.77;;;31.70;;
4835;SDS011;2432;51.226;6.904;2022-12-16T00:33:02;63.13;;;29.83;;
4835;SDS011;2432;51.226;6.904;2022-12-16T00:35:29;66.67;;;29.53;;
4835;SDS011;2432;51.226;6.904;2022-12-16T00:37:56;61.47;;;30.90;;
4835;SDS011;2432;51.226;6.904;2022-12-16T00:40:23;62.27;;;31.73;;
4835;SDS011;2432;51.226;6.904;2022-12-16T00:42:50;66.07;;;30.77;;
4835;SDS011;2432;51.226;6.904;2022-12-16T00:45:17;62.60;;;31.37;;
4835;SDS011;2432;51.226;6.904;2022-12-16T00:47:44;60.53;;;30.87;;
4835;SDS011;2432;51.226;6.904;2022-12-16T00:50:10;62.27;;;31.70;;
4835;SDS011;2432;51.226;6.904;2022-12-16T00:52:37;58.07;;;29.57;;
4835;SDS011;2432;51.226;6.904;2022-12-16T00:55:03;64.17;;;32.03;;
4835;SDS011;2432;51.226;6.904;2022-12-16T00:57:30;60.70;;;29.73;;
4835;SDS011;2432;51.226;6.904;2022-12-16T00:59:58;62.33;;;30.73;;
4835;SDS011;2432;51.226;6.904;2022-12-16T01:02:24;65.10;;;31.87;;
4835;SDS011;2432;51.226;6.904;2022-12-16T01:04:51;61.60;;;29.93;;
4835;SDS011;2432;51.226;6.904;2022-12-16T01:07:19;68.00;;;31.00;;
4835;SDS011;2432;51.226;6.904;2022-12-16T01:09:46;67.70;;;30.80;;
4835;SDS011;2432;51.226;6.904;2022-12-16T01:12:12;59.17;;;29.30;;
4835;SDS011;2432;51.226;6.904;2022-12-16T01:14:39;66.33;;;30.20;;
4835;SDS011;2432;51.226;6.904;2022-12-16T01:17:05;63.23;;;31.07;;
4835;SDS011;2432;51.226;6.904;2022-12-16T01:19:32;59.20;;;28.90;;
4835;SDS011;2432;51.226;6.904;2022-12-16T01:21:58;61.30;;;28.50;;
4835;SDS011;2432;51.226;6.904;2022-12-16T01:24:25;62.07;;;30.47;;
4835;SDS011;2432;51.226;6.904;2022-12-16T01:26:51;66.20;;;31.80;;
4835;SDS011;2432;51.226;6.904;2022-12-16T01:29:17;62.20;;;30.07;;
4835;SDS011;2432;51.226;6.904;2022-12-16T01:31:44;65.33;;;30.87;;
4835;SDS011;2432;51.226;6.904;2022-12-16T01:34:10;63.83;;;31.37;;
4835;SDS011;2432;51.226;6.904;2022-12-16T01:36:37;73.40;;;34.10;;
4835;SDS011;2432;51.226;6.904;2022-12-16T01:39:03;67.40;;;32.40;;
4835;SDS011;2432;51.226;6.904;2022-12-16T01:41:30;62.03;;;30.57;;
4835;SDS011;2432;51.226;6.904;2022-12-16T01:44:12;62.43;;;30.50;;
4835;SDS011;2432;51.226;6.904;2022-12-16T01:46:41;62.00;;;31.07;;
4835;SDS011;2432;51.226;6.904;2022-12-16T01:49:18;59.80;;;29.50;;
4835;SDS011;2432;51.226;6.904;2022-12-16T01:51:53;66.80;;;32.03;;
4835;SDS011;2432;51.226;6.904;2022-12-16T01:54:28;62.93;;;29.73;;
4835;SDS011;2432;51.226;6.904;2022-12-16T01:57:01;63.67;;;31.03;;
4835;SDS011;2432;51.226;6.904;2022-12-16T01:59:31;63.57;;;30.73;;
4835;SDS011;2432;51.226;6.904;2022-12-16T02:02:00;63.53;;;30.77;;
4835;SDS011;2432;51.226;6.904;2022-12-16T02:04:29;62.53;;;30.03;;
4835;SDS011;2432;51.226;6.904;2022-12-16T02:06:56;68.40;;;31.97;;
4835;SDS011;2432;51.226;6.904;2022-12-16T02:09:23;63.93;;;30.50;;
4835;SDS011;2432;51.226;6.904;2022-12-16T02:17:33;66.83;;;29.93;;
4835;SDS011;2432;51.226;6.904;2022-12-16T02:28:42;61.03;;;30.67;;
4835;SDS011;2432;51.226;6.904;2022-12-16T02:39:20;60.30;;;29.13;;
4835;SDS011;2432;51.226;6.904;2022-12-16T02:41:53;61.20;;;29.80;;
4835;SDS011;2432;51.226;6.904;2022-12-16T02:47:12;68.07;;;32.10;;
4835;SDS011;2432;51.226;6.904;2022-12-16T02:52:10;63.40;;;30.10;;
4835;SDS011;2432;51.226;6.904;2022-12-16T02:54:38;58.17;;;29.17;;
4835;SDS011;2432;51.226;6.904;2022-12-16T02:57:10;60.30;;;29.07;;
4835;SDS011;2432;51.226;6.904;2022-12-16T03:05:37;58.87;;;28.70;;
4835;SDS011;2432;51.226;6.904;2022-12-16T03:08:08;59.90;;;28.63;;
4835;SDS011;2432;51.226;6.904;2022-12-16T03:10:44;59.20;;;29.37;;
4835;SDS011;2432;51.226;6.904;2022-12-16T03:13:16;58.90;;;30.07;;
4835;SDS011;2432;51.226;6.904;2022-12-16T03:15:45;60.60;;;28.10;;
4835;SDS011;2432;51.226;6.904;2022-12-16T03:18:14;58.20;;;27.57;;
4835;SDS011;2432;51.226;6.904;2022-12-16T03:20:45;55.23;;;26.10;;
4835;SDS011;2432;51.226;6.904;2022-12-16T03:23:28;66.10;;;29.90;;
4835;SDS011;2432;51.226;6.904;2022-12-16T03:26:05;61.97;;;27.90;;
4835;SDS011;2432;51.226;6.904;2022-12-16T03:28:47;55.43;;;27.30;;
4835;SDS011;2432;51.226;6.904;2022-12-16T03:33:52;63.87;;;29.33;;
4835;SDS011;2432;51.226;6.904;2022-12-16T03:36:24;57.50;;;28.50;;
4835;SDS011;2432;51.226;6.904;2022-12-16T03:38:53;58.20;;;26.97;;
4835;SDS011;2432;51.226;6.904;2022-12-16T03:41:22;61.77;;;27.80;;
4835;SDS011;2432;51.226;6.904;2022-12-16T03:43:49;57.80;;;27.90;;
4835;SDS011;2432;51.226;6.904;2022-12-16T03:46:17;54.80;;;27.83;;
4835;SDS011;2432;51.226;6.904;2022-12-16T03:48:44;56.57;;;26.97;;
4835;SDS011;2432;51.226;6.904;2022-12-16T03:51:13;58.30;;;26.87;;
4835;SDS011;2432;51.226;6.904;2022-12-16T03:53:41;61.53;;;28.73;;
4835;SDS011;2432;51.226;6.904;2022-12-16T03:56:07;56.60;;;27.40;;
4835;SDS011;2432;51.226;6.904;2022-12-16T03:58:34;54.63;;;25.90;;
4835;SDS011;2432;51.226;6.904;2022-12-16T04:01:00;58.23;;;27.33;;
4835;SDS011;2432;51.226;6.904;2022-12-16T04:03:27;61.80;;;28.77;;
4835;SDS011;2432;51.226;6.904;2022-12-16T04:05:53;51.87;;;26.37;;
4835;SDS011;2432;51.226;6.904;2022-12-16T04:08:20;55.20;;;28.90;;
4835;SDS011;2432;51.226;6.904;2022-12-16T04:10:49;58.27;;;27.60;;
4835;SDS011;2432;51.226;6.904;2022-12-16T04:13:35;54.57;;;27.87;;
4835;SDS011;2432;51.226;6.904;2022-12-16T04:16:20;56.40;;;25.83;;
4835;SDS011;2432;51.226;6.904;2022-12-16T04:19:05;57.73;;;27.70;;
4835;SDS011;2432;51.226;6.904;2022-12-16T04:21:50;53.80;;;24.73;;
4835;SDS011;2432;51.226;6.904;2022-12-16T04:24:35;65.43;;;27.60;;
4835;SDS011;2432;51.226;6.904;2022-12-16T04:27:01;56.53;;;26.40;;
4835;SDS011;2432;51.226;6.904;2022-12-16T04:29:47;53.90;;;26.40;;
4835;SDS011;2432;51.226;6.904;2022-12-16T04:32:31;58.57;;;27.97;;
4835;SDS011;2432;51.226;6.904;2022-12-16T04:35:18;55.23;;;27.30;;
4835;SDS011;2432;51.226;6.904;2022-12-16T04:38:03;52.77;;;26.20;;
4835;SDS011;2432;51.226;6.904;2022-12-16T04:40:48;53.33;;;27.37;;
4835;SDS011;2432;51.226;6.904;2022-12-16T04:43:34;56.20;;;27.70;;
4835;SDS011;2432;51.226;6.904;2022-12-16T04:46:19;56.07;;;26.60;;
4835;SDS011;2432;51.226;6.904;2022-12-16T04:49:04;55.00;;;26.00;;
4835;SDS011;2432;51.226;6.904;2022-12-16T04:51:49;51.03;;;24.90;;
4835;SDS011;2432;51.226;6.904;2022-12-16T04:54:34;52.93;;;26.60;;
4835;SDS011;2432;51.226;6.904;2022-12-16T04:57:19;51.80;;;25.83;;
4835;SDS011;2432;51.226;6.904;2022-12-16T05:00:04;55.07;;;26.70;;
4835;SDS011;2432;51.226;6.904;2022-12-16T05:02:49;55.60;;;26.40;;
4835;SDS011;2432;51.226;6.904;2022-12-16T05:05:34;58.37;;;27.00;;
4835;SDS011;2432;51.226;6.904;2022-12-16T05:08:20;56.27;;;26.80;;
4835;SDS011;2432;51.226;6.904;2022-12-16T05:11:04;58.70;;;29.50;;
4835;SDS011;2432;51.226;6.904;2022-12-16T05:13:50;55.97;;;27.20;;
4835;SDS011;2432;51.226;6.904;2022-12-16T05:16:34;54.70;;;26.87;;
4835;SDS011;2432;51.226;6.904;2022-12-16T05:19:19;51.93;;;24.83;;
4835;SDS011;2432;51.226;6.904;2022-12-16T05:22:04;57.10;;;26.70;;
4835;SDS011;2432;51.226;6.904;2022-12-16T05:24:49;49.00;;;23.90;;
4835;SDS011;2432;51.226;6.904;2022-12-16T05:27:33;53.97;;;24.30;;
4835;SDS011;2432;51.226;6.904;2022-12-16T05:30:18;53.37;;;26.70;;
4835;SDS011;2432;51.226;6.904;2022-12-16T05:33:03;53.73;;;24.97;;
4835;SDS011;2432;51.226;6.904;2022-12-16T05:35:48;51.10;;;25.37;;
4835;SDS011;2432;51.226;6.904;2022-12-16T05:38:33;55.53;;;24.70;;
4835;SDS011;2432;51.226;6.904;2022-12-16T05:41:18;47.27;;;24.07;;
4835;SDS011;2432;51.226;6.904;2022-12-16T05:44:03;49.77;;;24.60;;
4835;SDS011;2432;51.226;6.904;2022-12-16T05:46:49;56.47;;;27.07;;
4835;SDS011;2432;51.226;6.904;2022-12-16T05:49:34;57.63;;;26.83;;
4835;SDS011;2432;51.226;6.904;2022-12-16T05:52:19;53.50;;;24.73;;
4835;SDS011;2432;51.226;6.904;2022-12-16T05:55:04;50.17;;;24.60;;
4835;SDS011;2432;51.226;6.904;2022-12-16T05:57:57;50.67;;;26.60;;
4835;SDS011;2432;51.226;6.904;2022-12-16T06:00:50;55.47;;;25.27;;
4835;SDS011;2432;51.226;6.904;2022-12-16T06:03:35;50.03;;;24.43;;
4835;SDS011;2432;51.226;6.904;2022-12-16T06:06:20;54.63;;;25.70;;
4835;SDS011;2432;51.226;6.904;2022-12-16T06:09:05;65.10;;;31.67;;
4835;SDS011;2432;51.226;6.904;2022-12-16T06:11:51;66.03;;;31.23;;
4835;SDS011;2432;51.226;6.904;2022-12-16T06:14:36;50.53;;;26.20;;
4835;SDS011;2432;51.226;6.904;2022-12-16T06:17:21;59.30;;;27.37;;
4835;SDS011;2432;51.226;6.904;2022-12-16T06:20:06;65.70;;;28.10;;
4835;SDS011;2432;51.226;6.904;2022-12-16T06:22:52;56.77;;;26.70;;
4835;SDS011;2432;51.226;6.904;2022-12-16T06:25:38;54.00;;;25.47;;
4835;SDS011;2432;51.226;6.904;2022-12-16T06:28:23;62.47;;;27.80;;
4835;SDS011;2432;51.226;6.904;2022-12-16T06:31:11;64.63;;;28.57;;
4835;SDS011;2432;51.226;6.904;2022-12-16T06:33:57;64.43;;;30.20;;
4835;SDS011;2432;51.226;6.904;2022-12-16T06:36:42;54.53;;;28.00;;
4835;SDS011;2432;51.226;6.904;2022-12-16T06:39:27;50.60;;;25.17;;
4835;SDS011;2432;51.226;6.904;2022-12-16T06:42:18;51.07;;;24.13;;
4835;SDS011;2432;51.226;6.904;2022-12-16T06:45:03;54.07;;;24.83;;
4835;SDS011;2432;51.226;6.904;2022-12-16T06:47:48;47.57;;;23.83;;
4835;SDS011;2432;51.226;6.904;2022-12-16T06:50:33;46.63;;;23.70;;
4835;SDS011;2432;51.226;6.904;2022-12-16T06:53:20;55.53;;;25.07;;
4835;SDS011;2432;51.226;6.904;2022-12-16T06:56:05;53.17;;;23.10;;
4835;SDS011;2432;51.226;6.904;2022-12-16T06:58:51;51.03;;;23.93;;
4835;SDS011;2432;51.226;6.904;2022-12-16T07:01:36;49.30;;;23.53;;
4835;SDS011;2432;51.226;6.904;2022-12-16T07:04:20;49.23;;;23.90;;
4835;SDS011;2432;51.226;6.904;2022-12-16T07:07:06;60.67;;;24.57;;
4835;SDS011;2432;51.226;6.904;2022-12-16T07:09:50;49.53;;;23.30;;
4835;SDS011;2432;51.226;6.904;2022-12-16T07:12:36;54.47;;;22.77;;
4835;SDS011;2432;51.226;6.904;2022-12-16T07:15:20;49.37;;;22.80;;
4835;SDS011;2432;51.226;6.904;2022-12-16T07:18:05;50.93;;;23.80;;
4835;SDS011;2432;51.226;6.904;2022-12-16T07:20:50;53.80;;;26.03;;
4835;SDS011;2432;51.226;6.904;2022-12-16T07:23:35;62.67;;;23.00;;
4835;SDS011;2432;51.226;6.904;2022-12-16T07:26:21;49.97;;;22.70;;
4835;SDS011;2432;51.226;6.904;2022-12-16T07:29:06;49.20;;;24.13;;
4835;SDS011;2432;51.226;6.904;2022-12-16T07:31:51;55.63;;;26.20;;
4835;SDS011;2432;51.226;6.904;2022-12-16T07:34:36;52.30;;;22.57;;
4835;SDS011;2432;51.226;6.904;2022-12-16T07:37:21;51.13;;;25.37;;
4835;SDS011;2432;51.226;6.904;2022-12-16T07:40:06;54.70;;;24.30;;
4835;SDS011;2432;51.226;6.904;2022-12-16T07:42:52;51.63;;;24.40;;
4835;SDS011;2432;51.226;6.904;2022-12-16T07:45:37;54.60;;;23.90;;
4835;SDS011;2432;51.226;6.904;2022-12-16T07:48:22;46.40;;;23.60;;
4835;SDS011;2432;51.226;6.904;2022-12-16T07:51:07;52.20;;;23.73;;
4835;SDS011;2432;51.226;6.904;2022-12-16T07:53:51;50.37;;;24.13;;
4835;SDS011;2432;51.226;6.904;2022-12-16T07:56:36;51.50;;;24.00;;
4835;SDS011;2432;51.226;6.904;2022-12-16T07:59:21;51.00;;;22.93;;
4835;SDS011;2432;51.226;6.904;2022-12-16T08:02:08;47.00;;;21.70;;
4835;SDS011;2432;51.226;6.904;2022-12-16T08:04:54;51.60;;;23.43;;
4835;SDS011;2432;51.226;6.904;2022-12-16T08:07:39;48.13;;;24.27;;
4835;SDS011;2432;51.226;6.904;2022-12-16T08:10:26;53.07;;;23.80;;
4835;SDS011;2432;51.226;6.904;2022-12-16T08:13:11;52.53;;;25.13;;
4835;SDS011;2432;51.226;6.904;2022-12-16T08:15:56;49.07;;;24.40;;
4835;SDS011;2432;51.226;6.904;2022-12-16T08:18:41;50.90;;;24.70;;
4835;SDS011;2432;51.226;6.904;2022-12-16T08:21:32;53.00;;;27.93;;
4835;SDS011;2432;51.226;6.904;2022-12-16T08:24:17;61.23;;;29.43;;
4835;SDS011;2432;51.226;6.904;2022-12-16T08:27:02;59.97;;;28.27;;
4835;SDS011;2432;51.226;6.904;2022-12-16T08:29:47;68.43;;;31.47;;
4835;SDS011;2432;51.226;6.904;2022-12-16T08:32:33;61.00;;;28.17;;
4835;SDS011;2432;51.226;6.904;2022-12-16T08:35:25;49.40;;;24.37;;
4835;SDS011;2432;51.226;6.904;2022-12-16T08:38:10;57.67;;;26.43;;
4835;SDS011;2432;51.226;6.904;2022-12-16T08:40:55;62.30;;;30.57;;
4835;SDS011;2432;51.226;6.904;2022-12-16T08:43:40;77.40;;;34.27;;
4835;SDS011;2432;51.226;6.904;2022-12-16T08:46:25;79.70;;;36.87;;
4835;SDS011;2432;51.226;6.904;2022-12-16T08:49:10;74.37;;;32.00;;
4835;SDS011;2432;51.226;6.904;2022-12-16T08:51:55;61.40;;;30.50;;
4835;SDS011;2432;51.226;6.904;2022-12-16T08:54:40;61.63;;;29.77;;
4835;SDS011;2432;51.226;6.904;2022-12-16T08:57:24;58.90;;;27.67;;
4835;SDS011;2432;51.226;6.904;2022-12-16T09:00:10;56.43;;;28.47;;
4835;SDS011;2432;51.226;6.904;2022-12-16T09:02:56;54.97;;;25.97;;
4835;SDS011;2432;51.226;6.904;2022-12-16T09:05:42;62.37;;;28.70;;
4835;SDS011;2432;51.226;6.904;2022-12-16T09:08:28;58.47;;;29.27;;
4835;SDS011;2432;51.226;6.904;2022-12-16T09:11:14;62.13;;;29.37;;
4835;SDS011;2432;51.226;6.904;2022-12-16T09:13:59;63.70;;;29.70;;
4835;SDS011;2432;51.226;6.904;2022-12-16T09:16:44;62.93;;;29.50;;
4835;SDS011;2432;51.226;6.904;2022-12-16T09:19:29;72.60;;;31.10;;
4835;SDS011;2432;51.226;6.904;2022-12-16T09:22:14;64.87;;;31.17;;
4835;SDS011;2432;51.226;6.904;2022-12-16T09:24:58;62.67;;;30.40;;
4835;SDS011;2432;51.226;6.904;2022-12-16T09:27:43;62.83;;;29.93;;
4835;SDS011;2432;51.226;6.904;2022-12-16T09:30:32;66.40;;;31.47;;
4835;SDS011;2432;51.226;6.904;2022-12-16T09:33:17;63.70;;;29.60;;
4835;SDS011;2432;51.226;6.904;2022-12-16T09:36:03;62.50;;;29.03;;
4835;SDS011;2432;51.226;6.904;2022-12-16T09:38:48;58.07;;;30.17;;
4835;SDS011;2432;51.226;6.904;2022-12-16T09:41:43;64.70;;;31.20;;
4835;SDS011;2432;51.226;6.904;2022-12-16T09:44:47;61.73;;;30.50;;
4835;SDS011;2432;51.226;6.904;2022-12-16T09:47:59;59.87;;;29.30;;
4835;SDS011;2432;51.226;6.904;2022-12-16T09:50:51;73.80;;;31.57;;
4835;SDS011;2432;51.226;6.904;2022-12-16T09:53:39;64.87;;;31.20;;
4835;SDS011;2432;51.226;6.904;2022-12-16T09:56:29;67.50;;;30.10;;
4835;SDS011;2432;51.226;6.904;2022-12-16T09:59:21;63.80;;;32.27;;
4835;SDS011;2432;51.226;6.904;2022-12-16T10:02:11;58.53;;;29.03;;
4835;SDS011;2432;51.226;6.904;2022-12-16T10:05:00;63.87;;;30.20;;
4835;SDS011;2432;51.226;6.904;2022-12-16T10:07:54;62.30;;;30.50;;
4835;SDS011;2432;51.226;6.904;2022-12-16T10:13:36;64.00;;;30.50;;
4835;SDS011;2432;51.226;6.904;2022-12-16T10:19:36;58.73;;;30.93;;
4835;SDS011;2432;51.226;6.904;2022-12-16T10:25:40;66.40;;;32.70;;
4835;SDS011;2432;51.226;6.904;2022-12-16T10:31:32;65.27;;;30.43;;
4835;SDS011;2432;51.226;6.904;2022-12-16T10:34:18;64.77;;;30.20;;
4835;SDS011;2432;51.226;6.904;2022-12-16T10:37:13;68.00;;;32.10;;
4835;SDS011;2432;51.226;6.904;2022-12-16T10:40:04;65.57;;;31.07;;
4835;SDS011;2432;51.226;6.904;2022-12-16T10:43:34;63.77;;;31.60;;
4835;SDS011;2432;51.226;6.904;2022-12-16T10:46:07;71.63;;;32.50;;
4835;SDS011;2432;51.226;6.904;2022-12-16T10:48:59;65.20;;;32.40;;
4835;SDS011;2432;51.226;6.904;2022-12-16T10:51:44;59.37;;;29.70;;
4835;SDS011;2432;51.226;6.904;2022-12-16T10:54:45;84.20;;;32.90;;
4835;SDS011;2432;51.226;6.904;2022-12-16T10:57:47;64.43;;;32.57;;
4835;SDS011;2432;51.226;6.904;2022-12-16T11:00:46;68.37;;;30.80;;
4835;SDS011;2432;51.226;6.904;2022-12-16T11:03:35;70.93;;;33.30;;
4835;SDS011;2432;51.226;6.904;2022-12-16T11:06:43;67.37;;;34.00;;
4835;SDS011;2432;51.226;6.904;2022-12-16T11:09:31;67.50;;;32.27;;
4835;SDS011;2432;51.226;6.904;2022-12-16T11:12:28;73.97;;;33.13;;
4835;SDS011;2432;51.226;6.904;2022-12-16T11:18:12;70.00;;;34.13;;
4835;SDS011;2432;51.226;6.904;2022-12-16T11:24:12;68.87;;;32.90;;
4835;SDS011;2432;51.226;6.904;2022-12-16T11:27:01;68.63;;;34.70;;
4835;SDS011;2432;51.226;6.904;2022-12-16T11:29:57;70.27;;;34.07;;
4835;SDS011;2432;51.226;6.904;2022-12-16T11:35:45;70.57;;;32.43;;
4835;SDS011;2432;51.226;6.904;2022-12-16T11:38:38;66.47;;;33.93;;
4835;SDS011;2432;51.226;6.904;2022-12-16T11:41:28;69.00;;;33.70;;
4835;SDS011;2432;51.226;6.904;2022-12-16T11:44:19;73.63;;;35.77;;
4835;SDS011;2432;51.226;6.904;2022-12-16T11:50:24;71.97;;;35.80;;
4835;SDS011;2432;51.226;6.904;2022-12-16T11:53:30;66.87;;;33.53;;
4835;SDS011;2432;51.226;6.904;2022-12-16T11:56:21;68.90;;;35.97;;
4835;SDS011;2432;51.226;6.904;2022-12-16T11:59:52;69.50;;;33.57;;
4835;SDS011;2432;51.226;6.904;2022-12-16T12:05:42;69.87;;;35.00;;
4835;SDS011;2432;51.226;6.904;2022-12-16T12:11:21;71.60;;;35.43;;
4835;SDS011;2432;51.226;6.904;2022-12-16T12:14:23;76.40;;;35.50;;
4835;SDS011;2432;51.226;6.904;2022-12-16T12:20:29;66.53;;;34.13;;
4835;SDS011;2432;51.226;6.904;2022-12-16T12:23:19;68.13;;;35.60;;
4835;SDS011;2432;51.226;6.904;2022-12-16T12:26:15;75.37;;;35.47;;
4835;SDS011;2432;51.226;6.904;2022-12-16T12:31:55;84.80;;;37.50;;
4835;SDS011;2432;51.226;6.904;2022-12-16T12:35:34;75.00;;;37.87;;
4835;SDS011;2432;51.226;6.904;2022-12-16T12:38:15;76.77;;;35.80;;
4835;SDS011;2432;51.226;6.904;2022-12-16T12:44:21;74.97;;;37.17;;
4835;SDS011;2432;51.226;6.904;2022-12-16T12:47:16;66.33;;;33.57;;
4835;SDS011;2432;51.226;6.904;2022-12-16T12:50:11;71.70;;;34.80;;
4835;SDS011;2432;51.226;6.904;2022-12-16T12:56:04;75.53;;;39.00;;
4835;SDS011;2432;51.226;6.904;2022-12-16T12:58:57;76.40;;;36.20;;
4835;SDS011;2432;51.226;6.904;2022-12-16T13:01:45;71.10;;;36.90;;
4835;SDS011;2432;51.226;6.904;2022-12-16T13:04:31;79.67;;;38.97;;
4835;SDS011;2432;51.226;6.904;2022-12-16T13:07:18;75.03;;;36.50;;
4835;SDS011;2432;51.226;6.904;2022-12-16T13:16:02;75.13;;;37.50;;
4835;SDS011;2432;51.226;6.904;2022-12-16T13:19:02;83.37;;;37.90;;
4835;SDS011;2432;51.226;6.904;2022-12-16T13:22:28;76.27;;;37.57;;
4835;SDS011;2432;51.226;6.904;2022-12-16T13:28:41;77.77;;;37.73;;
4835;SDS011;2432;51.226;6.904;2022-12-16T13:31:58;81.53;;;38.27;;
4835;SDS011;2432;51.226;6.904;2022-12-16T13:34:45;73.77;;;35.90;;
4835;SDS011;2432;51.226;6.904;2022-12-16T13:38:18;69.77;;;33.10;;
4835;SDS011;2432;51.226;6.904;2022-12-16T13:44:11;71.57;;;34.77;;
4835;SDS011;2432;51.226;6.904;2022-12-16T13:46:56;69.43;;;33.73;;
4835;SDS011;2432;51.226;6.904;2022-12-16T13:49:43;65.53;;;33.00;;
4835;SDS011;2432;51.226;6.904;2022-12-16T13:52:45;65.27;;;32.73;;
4835;SDS011;2432;51.226;6.904;2022-12-16T13:58:34;65.83;;;32.50;;
4835;SDS011;2432;51.226;6.904;2022-12-16T14:04:29;61.03;;;32.83;;
4835;SDS011;2432;51.226;6.904;2022-12-16T14:07:20;69.67;;;32.67;;
4835;SDS011;2432;51.226;6.904;2022-12-16T14:10:21;73.53;;;34.10;;
4835;SDS011;2432;51.226;6.904;2022-12-16T14:13:57;93.47;;;39.13;;
4835;SDS011;2432;51.226;6.904;2022-12-16T14:16:44;85.33;;;39.37;;
4835;SDS011;2432;51.226;6.904;2022-12-16T14:26:09;103.83;;;43.87;;
4835;SDS011;2432;51.226;6.904;2022-12-16T14:28:56;107.97;;;40.30;;
4835;SDS011;2432;51.226;6.904;2022-12-16T14:31:43;103.00;;;44.23;;
4835;SDS011;2432;51.226;6.904;2022-12-16T14:34:31;100.43;;;43.27;;
4835;SDS011;2432;51.226;6.904;2022-12-16T14:37:36;104.43;;;42.00;;
4835;SDS011;2432;51.226;6.904;2022-12-16T14:43:13;103.23;;;43.60;;
4835;SDS011;2432;51.226;6.904;2022-12-16T14:46:02;128.80;;;47.83;;
4835;SDS011;2432;51.226;6.904;2022-12-16T14:48:48;112.70;;;45.53;;
4835;SDS011;2432;51.226;6.904;2022-12-16T14:51:43;116.27;;;48.07;;
4835;SDS011;2432;51.226;6.904;2022-12-16T14:54:36;110.07;;;46.03;;
4835;SDS011;2432;51.226;6.904;2022-12-16T14:57:24;121.03;;;47.63;;
4835;SDS011;2432;51.226;6.904;2022-12-16T15:00:12;128.60;;;47.90;;
4835;SDS011;2432;51.226;6.904;2022-12-16T15:03:22;133.77;;;50.57;;
4835;SDS011;2432;51.226;6.904;2022-12-16T15:06:23;130.63;;;47.50;;
4835;SDS011;2432;51.226;6.904;2022-12-16T15:09:17;115.63;;;48.53;;
4835;SDS011;2432;51.226;6.904;2022-12-16T15:12:12;122.50;;;51.43;;
4835;SDS011;2432;51.226;6.904;2022-12-16T15:14:59;122.23;;;47.40;;
4835;SDS011;2432;51.226;6.904;2022-12-16T15:17:50;132.60;;;51.93;;
4835;SDS011;2432;51.226;6.904;2022-12-16T15:20:56;115.90;;;47.40;;
4835;SDS011;2432;51.226;6.904;2022-12-16T15:23:42;125.57;;;48.90;;
4835;SDS011;2432;51.226;6.904;2022-12-16T15:26:29;128.47;;;49.20;;
4835;SDS011;2432;51.226;6.904;2022-12-16T15:29:49;120.13;;;46.57;;
4835;SDS011;2432;51.226;6.904;2022-12-16T15:32:28;129.73;;;48.87;;
4835;SDS011;2432;51.226;6.904;2022-12-16T15:35:31;132.00;;;49.87;;
4835;SDS011;2432;51.226;6.904;2022-12-16T15:50:27;115.80;;;47.60;;
4835;SDS011;2432;51.226;6.904;2022-12-16T15:53:13;135.17;;;49.80;;
4835;SDS011;2432;51.226;6.904;2022-12-16T15:56:16;126.87;;;49.17;;
4835;SDS011;2432;51.226;6.904;2022-12-16T16:02:23;133.10;;;48.97;;
4835;SDS011;2432;51.226;6.904;2022-12-16T16:05:21;141.87;;;48.23;;
4835;SDS011;2432;51.226;6.904;2022-12-16T16:08:09;127.20;;;48.00;;
4835;SDS011;2432;51.226;6.904;2022-12-16T16:10:54;135.37;;;49.20;;
4835;SDS011;2432;51.226;6.904;2022-12-16T16:13:40;151.30;;;51.40;;
4835;SDS011;2432;51.226;6.904;2022-12-16T16:16:34;147.57;;;53.10;;
4835;SDS011;2432;51.226;6.904;2022-12-16T16:19:20;150.53;;;50.40;;
4835;SDS011;2432;51.226;6.904;2022-12-16T16:22:09;131.90;;;45.13;;
4835;SDS011;2432;51.226;6.904;2022-12-16T16:24:55;139.17;;;43.67;;
4835;SDS011;2432;51.226;6.904;2022-12-16T16:27:41;126.03;;;43.37;;
4835;SDS011;2432;51.226;6.904;2022-12-16T16:30:26;132.20;;;44.77;;
4835;SDS011;2432;51.226;6.904;2022-12-16T16:33:12;148.40;;;44.10;;
4835;SDS011;2432;51.226;6.904;2022-12-16T16:35:57;138.40;;;44.00;;
4835;SDS011;2432;51.226;6.904;2022-12-16T16:38:42;130.60;;;42.73;;
4835;SDS011;2432;51.226;6.904;2022-12-16T16:41:27;126.90;;;40.90;;
4835;SDS011;2432;51.226;6.904;2022-12-16T16:44:12;134.33;;;44.17;;
4835;SDS011;2432;51.226;6.904;2022-12-16T16:46:57;163.13;;;44.77;;
4835;SDS011;2432;51.226;6.904;2022-12-16T16:49:45;145.20;;;45.60;;
4835;SDS011;2432;51.226;6.904;2022-12-16T16:52:31;146.13;;;46.30;;
4835;SDS011;2432;51.226;6.904;2022-12-16T16:55:20;129.17;;;45.17;;
4835;SDS011;2432;51.226;6.904;2022-12-16T16:58:10;147.10;;;45.50;;
4835;SDS011;2432;51.226;6.904;2022-12-16T17:00:57;120.90;;;42.40;;
4835;SDS011;2432;51.226;6.904;2022-12-16T17:03:43;186.17;;;47.20;;
4835;SDS011;2432;51.226;6.904;2022-12-16T17:06:28;124.13;;;40.67;;
4835;SDS011;2432;51.226;6.904;2022-12-16T17:09:13;144.73;;;45.90;;
4835;SDS011;2432;51.226;6.904;2022-12-16T17:11:58;142.80;;;43.17;;
4835;SDS011;2432;51.226;6.904;2022-12-16T17:14:43;141.27;;;40.67;;
4835;SDS011;2432;51.226;6.904;2022-12-16T17:17:28;167.07;;;45.27;;
4835;SDS011;2432;51.226;6.904;2022-12-16T17:20:14;139.90;;;41.70;;
4835;SDS011;2432;51.226;6.904;2022-12-16T17:23:00;140.07;;;40.63;;
4835;SDS011;2432;51.226;6.904;2022-12-16T17:25:44;171.33;;;44.60;;
4835;SDS011;2432;51.226;6.904;2022-12-16T17:28:29;178.30;;;43.90;;
4835;SDS011;2432;51.226;6.904;2022-12-16T17:31:14;200.50;;;47.37;;
4835;SDS011;2432;51.226;6.904;2022-12-16T17:33:59;144.57;;;43.07;;
4835;SDS011;2432;51.226;6.904;2022-12-16T17:36:44;133.97;;;42.27;;
4835;SDS011;2432;51.226;6.904;2022-12-16T17:39:29;155.73;;;43.73;;
4835;SDS011;2432;51.226;6.904;2022-12-16T17:42:14;155.17;;;42.87;;
4835;SDS011;2432;51.226;6.904;2022-12-16T17:44:58;175.50;;;45.03;;
4835;SDS011;2432;51.226;6.904;2022-12-16T17:47:44;186.20;;;44.60;;
4835;SDS011;2432;51.226;6.904;2022-12-16T17:50:28;157.67;;;44.27;;
4835;SDS011;2432;51.226;6.904;2022-12-16T17:53:13;203.33;;;43.50;;
4835;SDS011;2432;51.226;6.904;2022-12-16T17:56:02;160.40;;;42.40;;
4835;SDS011;2432;51.226;6.904;2022-12-16T17:58:48;174.97;;;45.00;;
4835;SDS011;2432;51.226;6.904;2022-12-16T18:01:36;162.93;;;43.60;;
4835;SDS011;2432;51.226;6.904;2022-12-16T18:04:21;138.77;;;40.87;;
4835;SDS011;2432;51.226;6.904;2022-12-16T18:07:06;162.47;;;45.20;;
4835;SDS011;2432;51.226;6.904;2022-12-16T18:09:51;150.97;;;44.07;;
4835;SDS011;2432;51.226;6.904;2022-12-16T18:12:36;140.47;;;42.70;;
4835;SDS011;2432;51.226;6.904;2022-12-16T18:15:21;148.40;;;40.30;;
4835;SDS011;2432;51.226;6.904;2022-12-16T18:18:06;149.43;;;43.53;;
4835;SDS011;2432;51.226;6.904;2022-12-16T18:20:51;152.07;;;42.17;;
4835;SDS011;2432;51.226;6.904;2022-12-16T18:23:36;158.57;;;42.17;;
4835;SDS011;2432;51.226;6.904;2022-12-16T18:26:21;160.37;;;43.83;;
4835;SDS011;2432;51.226;6.904;2022-12-16T18:29:05;170.57;;;45.80;;